Big Bear Station Historical Data
Daily Summary for July 6, 2017 Units:  English    Metric   Both
« Previous Day
Next Day »
Daily Weekly Monthly Yearly Custom
  High: Low: Average:
Temperature: 89.4 °F 53.6 °F 70.8 °F
Dew Point: 51.8 °F 41.6 °F 47.2 °F
Humidity: 79 % 23 % 47 %
Wind Speed: 5.8 mph 0.0 mph 1.9 mph
Wind Gust: -999.0 mph - -
Wind:- - West
Pressure: 30.39 in 30.33 in -
Precipitation: 0.00 in    
Historical Graphs
 
 
Tabular Data for July 6, 2017
Time Temperature Dew Point Pressure Wind Wind Speed Wind Gust Humidity Rainfall Rate (Hourly)
00:02 58.1 °F 43.8 °F 30.35 in South 2.2 mph -999.0 mph 59 % 0 in
00:17 57.7 °F 43.5 °F 30.35 in Calm   -999.0 mph 59 % 0 in
00:32 57.2 °F 41.6 °F 30.35 in Calm   -999.0 mph 56 % 0 in
00:47 57.2 °F 42.6 °F 30.35 in Calm   -999.0 mph 58 % 0 in
01:02 56.8 °F 42.2 °F 30.35 in South 1.1 mph -999.0 mph 58 % 0 in
01:18 56.7 °F 42.1 °F 30.35 in Calm   -999.0 mph 58 % 0 in
01:33 56.5 °F 42.3 °F 30.34 in Calm   -999.0 mph 59 % 0 in
01:48 56.1 °F 42.0 °F 30.34 in Calm   -999.0 mph 59 % 0 in
02:34 55.9 °F 41.8 °F 30.34 in South 2.2 mph -999.0 mph 59 % 0 in
02:49 55.4 °F 44.2 °F 30.34 in SSE 2.2 mph -999.0 mph 66 % 0 in
03:04 55.4 °F 45.4 °F 30.34 in South 1.7 mph -999.0 mph 69 % 0 in
03:19 55.2 °F 46.0 °F 30.34 in SSE 1.7 mph -999.0 mph 71 % 0 in
03:34 55.2 °F 46.7 °F 30.34 in SSE 2.7 mph -999.0 mph 73 % 0 in
03:50 55.4 °F 46.5 °F 30.34 in Calm   -999.0 mph 72 % 0 in
04:05 55.0 °F 45.4 °F 30.34 in Calm   -999.0 mph 70 % 0 in
04:20 54.7 °F 45.1 °F 30.34 in Calm   -999.0 mph 70 % 0 in
04:35 54.3 °F 44.0 °F 30.34 in Calm   -999.0 mph 68 % 0 in
04:50 54.3 °F 45.8 °F 30.34 in Calm   -999.0 mph 73 % 0 in
05:06 54.3 °F 46.9 °F 30.34 in Calm   -999.0 mph 76 % 0 in
05:21 54.1 °F 47.7 °F 30.35 in Calm   -999.0 mph 79 % 0 in
05:36 53.8 °F 47.1 °F 30.36 in Calm   -999.0 mph 78 % 0 in
05:51 53.6 °F 46.2 °F 30.36 in Calm   -999.0 mph 76 % 0 in
06:06 53.6 °F 45.9 °F 30.36 in Calm   -999.0 mph 75 % 0 in
06:22 53.6 °F 45.5 °F 30.37 in Calm   -999.0 mph 74 % 0 in
06:37 54.0 °F 45.9 °F 30.37 in Calm   -999.0 mph 74 % 0 in
06:52 53.8 °F 46.1 °F 30.37 in Calm   -999.0 mph 75 % 0 in
07:07 54.7 °F 46.9 °F 30.38 in Calm   -999.0 mph 75 % 0 in
07:23 56.1 °F 47.9 °F 30.38 in Calm   -999.0 mph 74 % 0 in
07:38 56.3 °F 47.8 °F 30.39 in Calm   -999.0 mph 73 % 0 in
07:53 57.4 °F 49.9 °F 30.38 in Calm   -999.0 mph 76 % 0 in
08:08 59.0 °F 50.4 °F 30.39 in Calm   -999.0 mph 73 % 0 in
08:23 60.8 °F 51.3 °F 30.39 in Calm   -999.0 mph 71 % 0 in
08:39 62.6 °F 51.1 °F 30.39 in Calm   -999.0 mph 66 % 0 in
08:54 64.8 °F 49.7 °F 30.39 in Calm   -999.0 mph 58 % 0 in
09:09 67.1 °F 48.4 °F 30.39 in Calm   -999.0 mph 51 % 0 in
09:24 69.8 °F 47.5 °F 30.38 in Calm   -999.0 mph 45 % 0 in
09:39 73.0 °F 45.9 °F 30.38 in NW 3.7 mph -999.0 mph 38 % 0 in
09:55 75.0 °F 48.4 °F 30.38 in NNW 2.7 mph -999.0 mph 39 % 0 in
10:10 77.0 °F 48.0 °F 30.39 in NW 3.2 mph -999.0 mph 36 % 0 in
10:25 78.1 °F 46.7 °F 30.39 in NW 3.2 mph -999.0 mph 33 % 0 in
10:40 79.2 °F 44.2 °F 30.39 in NW 2.7 mph -999.0 mph 29 % 0 in
10:55 79.3 °F 47.7 °F 30.38 in NW 3.2 mph -999.0 mph 33 % 0 in
11:11 80.6 °F 45.4 °F 30.38 in NNW 4.2 mph -999.0 mph 29 % 0 in
11:26 82.0 °F 47.5 °F 30.38 in NNW 4.2 mph -999.0 mph 30 % 0 in
11:41 83.1 °F 51.8 °F 30.38 in North 4.2 mph -999.0 mph 34 % 0 in
11:56 84.0 °F 47.4 °F 30.38 in NW 3.7 mph -999.0 mph 28 % 0 in
12:12 85.8 °F 48.9 °F 30.38 in NNW 4.7 mph -999.0 mph 28 % 0 in
12:27 86.7 °F 48.7 °F 30.37 in NW 4.2 mph -999.0 mph 27 % 0 in
12:42 86.7 °F 47.7 °F 30.37 in NNW 4.2 mph -999.0 mph 26 % 0 in
12:57 88.3 °F 48.0 °F 30.37 in NW 2.7 mph -999.0 mph 25 % 0 in
13:12 87.1 °F 50.1 °F 30.37 in NNE 4.2 mph -999.0 mph 28 % 0 in
13:28 88.0 °F 50.8 °F 30.37 in NNW 4.2 mph -999.0 mph 28 % 0 in
13:43 87.4 °F 48.3 °F 30.37 in NW 5.3 mph -999.0 mph 26 % 0 in
13:58 87.1 °F 48.1 °F 30.37 in NNW 3.7 mph -999.0 mph 26 % 0 in
14:13 86.5 °F 47.6 °F 30.36 in NNW 5.3 mph -999.0 mph 26 % 0 in
14:29 84.9 °F 47.2 °F 30.36 in NNE 2.2 mph -999.0 mph 27 % 0 in
14:44 88.5 °F 48.2 °F 30.36 in NNW 4.2 mph -999.0 mph 25 % 0 in
14:59 88.9 °F 47.5 °F 30.35 in East 4.2 mph -999.0 mph 24 % 0 in
15:15 88.9 °F 48.5 °F 30.35 in NW 5.8 mph -999.0 mph 25 % 0 in
15:30 89.4 °F 46.7 °F 30.35 in South 2.2 mph -999.0 mph 23 % 0 in
15:45 88.7 °F 48.4 °F 30.34 in NW 4.2 mph -999.0 mph 25 % 0 in
16:01 87.6 °F 48.5 °F 30.35 in NNW 4.7 mph -999.0 mph 26 % 0 in
16:31 86.9 °F 47.9 °F 30.34 in West 4.2 mph -999.0 mph 26 % 0 in
16:46 88.9 °F 49.6 °F 30.33 in NW 5.8 mph -999.0 mph 26 % 0 in
17:01 87.3 °F 49.2 °F 30.33 in North 5.3 mph -999.0 mph 27 % 0 in
17:17 88.9 °F 51.6 °F 30.33 in WNW 4.2 mph -999.0 mph 28 % 0 in
17:33 87.8 °F 49.7 °F 30.34 in NNW 2.7 mph -999.0 mph 27 % 0 in
17:48 88.2 °F 50.0 °F 30.33 in West 3.2 mph -999.0 mph 27 % 0 in
18:04 86.7 °F 50.7 °F 30.33 in NW 5.3 mph -999.0 mph 29 % 0 in
18:19 86.0 °F 50.1 °F 30.33 in SW 2.2 mph -999.0 mph 29 % 0 in
18:34 84.6 °F 49.8 °F 30.33 in NW 3.7 mph -999.0 mph 30 % 0 in
18:49 83.8 °F 49.1 °F 30.33 in NW 4.2 mph -999.0 mph 30 % 0 in
19:05 82.8 °F 49.9 °F 30.33 in WNW 3.7 mph -999.0 mph 32 % 0 in
19:20 80.6 °F 49.6 °F 30.33 in Calm   -999.0 mph 34 % 0 in
19:35 78.4 °F 50.0 °F 30.34 in WNW 2.2 mph -999.0 mph 37 % 0 in
19:50 76.5 °F 49.7 °F 30.34 in NW 1.1 mph -999.0 mph 39 % 0 in
20:05 74.7 °F 49.4 °F 30.34 in Calm   -999.0 mph 41 % 0 in
20:21 73.4 °F 48.9 °F 30.34 in Calm   -999.0 mph 42 % 0 in
20:36 71.1 °F 49.3 °F 30.34 in Calm   -999.0 mph 46 % 0 in
20:51 70.5 °F 49.3 °F 30.34 in Calm   -999.0 mph 47 % 0 in
21:06 69.4 °F 50.0 °F 30.34 in Calm   -999.0 mph 50 % 0 in
21:21 68.5 °F 48.6 °F 30.35 in SSE 1.7 mph -999.0 mph 49 % 0 in
21:37 68.4 °F 47.4 °F 30.35 in Calm   -999.0 mph 47 % 0 in
21:52 67.8 °F 45.7 °F 30.35 in Calm   -999.0 mph 45 % 0 in
22:07 67.3 °F 45.8 °F 30.35 in SSE 2.2 mph -999.0 mph 46 % 0 in
22:22 66.9 °F 44.9 °F 30.36 in South 3.2 mph -999.0 mph 45 % 0 in
22:38 66.6 °F 45.2 °F 30.36 in SSE 2.2 mph -999.0 mph 46 % 0 in
22:53 65.8 °F 44.4 °F 30.35 in Calm   -999.0 mph 46 % 0 in
23:08 64.9 °F 44.2 °F 30.35 in Calm   -999.0 mph 47 % 0 in
23:23 64.4 °F 43.7 °F 30.36 in SSE 1.7 mph -999.0 mph 47 % 0 in
23:38 63.9 °F 44.4 °F 30.35 in Calm   -999.0 mph 49 % 0 in
23:54 63.1 °F 44.2 °F 30.35 in Calm   -999.0 mph 50 % 0 in
Big Bear CA Weather
Compliments of Weather Underground - 1.5 mb